sensor_id;sensor_type;location;lat;lon;timestamp;pressure;altitude;pressure_sealevel;temperature;humidity
50292;BME280;36190;54.980;73.388;2023-08-06T09:47:04;99390.06;;;34.32;41.19
50292;BME280;36190;54.980;73.388;2023-08-06T09:49:41;99392.50;;;34.05;40.40
50292;BME280;36190;54.980;73.388;2023-08-06T09:52:12;99391.41;;;34.22;40.26
50292;BME280;36190;54.980;73.388;2023-08-06T09:54:39;99391.75;;;34.37;39.60
50292;BME280;36190;54.980;73.388;2023-08-06T09:57:08;99401.59;;;34.63;39.00
50292;BME280;36190;54.980;73.388;2023-08-06T09:59:37;99401.84;;;34.90;37.88
50292;BME280;36190;54.980;73.388;2023-08-06T10:02:12;99396.31;;;35.22;37.24
50292;BME280;36190;54.980;73.388;2023-08-06T10:04:40;99403.13;;;35.08;37.18
50292;BME280;36190;54.980;73.388;2023-08-06T10:07:09;99392.28;;;35.03;37.22
50292;BME280;36190;54.980;73.388;2023-08-06T10:09:38;99398.91;;;35.15;36.65
50292;BME280;36190;54.980;73.388;2023-08-06T10:12:06;99399.94;;;35.26;36.36
50292;BME280;36190;54.980;73.388;2023-08-06T10:14:35;99400.41;;;35.64;35.87
50292;BME280;36190;54.980;73.388;2023-08-06T10:17:05;99397.63;;;36.19;34.68
50292;BME280;36190;54.980;73.388;2023-08-06T10:19:35;99389.25;;;36.39;34.30
50292;BME280;36190;54.980;73.388;2023-08-06T10:22:09;99392.19;;;36.27;33.61
50292;BME280;36190;54.980;73.388;2023-08-06T10:24:48;99406.38;;;36.22;33.44
50292;BME280;36190;54.980;73.388;2023-08-06T10:27:22;99401.56;;;36.61;32.83
50292;BME280;36190;54.980;73.388;2023-08-06T10:29:50;99399.34;;;36.71;32.74
50292;BME280;36190;54.980;73.388;2023-08-06T10:32:18;99403.91;;;36.83;32.43
50292;BME280;36190;54.980;73.388;2023-08-06T10:34:58;99402.38;;;37.09;31.87
50292;BME280;36190;54.980;73.388;2023-08-06T10:37:35;99399.41;;;37.25;31.87
50292;BME280;36190;54.980;73.388;2023-08-06T10:40:04;99407.34;;;37.23;31.81
50292;BME280;36190;54.980;73.388;2023-08-06T10:42:33;99402.84;;;37.14;31.57
50292;BME280;36190;54.980;73.388;2023-08-06T10:45:21;99408.56;;;37.25;31.87
50292;BME280;36190;54.980;73.388;2023-08-06T10:47:53;99421.28;;;37.53;32.72
50292;BME280;36190;54.980;73.388;2023-08-06T10:50:23;99413.56;;;37.70;31.61
50292;BME280;36190;54.980;73.388;2023-08-06T10:52:52;99412.38;;;38.02;30.56
50292;BME280;36190;54.980;73.388;2023-08-06T10:55:23;99408.53;;;38.14;30.10
50292;BME280;36190;54.980;73.388;2023-08-06T10:57:51;99405.50;;;38.26;30.23
50292;BME280;36190;54.980;73.388;2023-08-06T11:00:20;99423.81;;;38.27;29.81
50292;BME280;36190;54.980;73.388;2023-08-06T11:02:48;99414.03;;;38.41;29.64
50292;BME280;36190;54.980;73.388;2023-08-06T11:05:16;99413.78;;;38.57;29.10
50292;BME280;36190;54.980;73.388;2023-08-06T11:07:45;99416.75;;;38.75;28.73
50292;BME280;36190;54.980;73.388;2023-08-06T11:10:14;99411.06;;;39.09;28.86
50292;BME280;36190;54.980;73.388;2023-08-06T11:12:41;99410.41;;;39.34;28.19
50292;BME280;36190;54.980;73.388;2023-08-06T11:15:09;99424.78;;;39.36;27.95
50292;BME280;36190;54.980;73.388;2023-08-06T11:17:39;99409.09;;;39.10;27.53
50292;BME280;36190;54.980;73.388;2023-08-06T11:20:08;99418.88;;;38.92;28.17
50292;BME280;36190;54.980;73.388;2023-08-06T11:22:36;99415.63;;;38.83;28.29
50292;BME280;36190;54.980;73.388;2023-08-06T11:25:07;99415.66;;;38.87;28.16
50292;BME280;36190;54.980;73.388;2023-08-06T11:27:34;99419.03;;;39.11;28.20
50292;BME280;36190;54.980;73.388;2023-08-06T11:30:02;99413.72;;;39.51;27.56
50292;BME280;36190;54.980;73.388;2023-08-06T11:32:30;99418.19;;;39.66;27.02
50292;BME280;36190;54.980;73.388;2023-08-06T11:34:59;99419.47;;;39.83;26.98
50292;BME280;36190;54.980;73.388;2023-08-06T11:37:36;99426.47;;;40.37;26.80
50292;BME280;36190;54.980;73.388;2023-08-06T11:40:09;99426.16;;;40.93;25.83
50292;BME280;36190;54.980;73.388;2023-08-06T11:42:38;99421.72;;;41.28;25.75
50292;BME280;36190;54.980;73.388;2023-08-06T11:45:06;99424.91;;;41.34;25.30
50292;BME280;36190;54.980;73.388;2023-08-06T11:47:38;99422.16;;;40.94;25.27
50292;BME280;36190;54.980;73.388;2023-08-06T11:50:07;99426.16;;;40.82;25.45
50292;BME280;36190;54.980;73.388;2023-08-06T11:52:34;99422.16;;;40.83;25.30
50292;BME280;36190;54.980;73.388;2023-08-06T11:55:09;99428.53;;;40.91;25.28
50292;BME280;36190;54.980;73.388;2023-08-06T11:57:37;99424.53;;;40.99;24.93
50292;BME280;36190;54.980;73.388;2023-08-06T12:00:06;99426.91;;;41.19;24.88
50292;BME280;36190;54.980;73.388;2023-08-06T12:02:34;99429.31;;;41.24;24.72
50292;BME280;36190;54.980;73.388;2023-08-06T12:05:04;99425.31;;;41.18;24.61
50292;BME280;36190;54.980;73.388;2023-08-06T12:07:32;99425.31;;;41.14;24.62
50292;BME280;36190;54.980;73.388;2023-08-06T12:10:00;99427.72;;;41.34;24.54
50292;BME280;36190;54.980;73.388;2023-08-06T12:12:29;99430.84;;;41.58;24.10
50292;BME280;36190;54.980;73.388;2023-08-06T12:14:56;99432.44;;;41.62;24.01
50292;BME280;36190;54.980;73.388;2023-08-06T12:17:24;99425.66;;;41.52;23.99
50292;BME280;36190;54.980;73.388;2023-08-06T12:19:52;99428.91;;;41.04;24.28
50292;BME280;36190;54.980;73.388;2023-08-06T12:22:19;99421.75;;;40.92;24.51
50292;BME280;36190;54.980;73.388;2023-08-06T12:24:47;99432.53;;;40.86;24.59
50292;BME280;36190;54.980;73.388;2023-08-06T12:27:14;99432.09;;;40.66;24.45
50292;BME280;36190;54.980;73.388;2023-08-06T12:29:45;99432.50;;;40.75;24.24
50292;BME280;36190;54.980;73.388;2023-08-06T12:32:13;99434.94;;;40.80;24.28
50292;BME280;36190;54.980;73.388;2023-08-06T12:34:42;99437.25;;;40.49;24.74
50292;BME280;36190;54.980;73.388;2023-08-06T12:37:09;99442.88;;;40.67;24.52
50292;BME280;36190;54.980;73.388;2023-08-06T12:39:37;99449.72;;;40.92;24.30
50292;BME280;36190;54.980;73.388;2023-08-06T12:42:05;99446.13;;;41.06;24.22
50292;BME280;36190;54.980;73.388;2023-08-06T12:44:33;99458.88;;;41.21;23.75
50292;BME280;36190;54.980;73.388;2023-08-06T12:47:02;99466.50;;;41.28;23.66
50292;BME280;36190;54.980;73.388;2023-08-06T12:49:29;99461.25;;;41.48;23.22
50292;BME280;36190;54.980;73.388;2023-08-06T12:51:57;99471.63;;;41.66;22.91
50292;BME280;36190;54.980;73.388;2023-08-06T12:54:26;99475.63;;;41.61;23.00
50292;BME280;36190;54.980;73.388;2023-08-06T12:56:54;99478.81;;;41.60;23.04
50292;BME280;36190;54.980;73.388;2023-08-06T12:59:21;99484.41;;;41.56;22.84
50292;BME280;36190;54.980;73.388;2023-08-06T13:01:49;99482.44;;;41.57;22.60
50292;BME280;36190;54.980;73.388;2023-08-06T13:04:18;99479.66;;;41.49;22.57
50292;BME280;36190;54.980;73.388;2023-08-06T13:06:46;99478.50;;;41.29;22.74
50292;BME280;36190;54.980;73.388;2023-08-06T13:09:13;99474.88;;;41.06;23.29
50292;BME280;36190;54.980;73.388;2023-08-06T13:11:41;99481.66;;;40.98;23.14
50292;BME280;36190;54.980;73.388;2023-08-06T13:14:13;99488.44;;;40.82;23.22
50292;BME280;36190;54.980;73.388;2023-08-06T13:16:42;99484.41;;;40.65;23.29
50292;BME280;36190;54.980;73.388;2023-08-06T13:19:10;99476.41;;;40.64;23.41
50292;BME280;36190;54.980;73.388;2023-08-06T13:22:00;99478.47;;;40.89;23.21
50292;BME280;36190;54.980;73.388;2023-08-06T13:24:29;99482.84;;;40.90;23.17
50292;BME280;36190;54.980;73.388;2023-08-06T13:26:57;99486.88;;;41.14;22.94
50292;BME280;36190;54.980;73.388;2023-08-06T13:29:25;99489.25;;;41.16;22.61
50292;BME280;36190;54.980;73.388;2023-08-06T13:31:53;99484.06;;;41.10;22.40
50292;BME280;36190;54.980;73.388;2023-08-06T13:34:21;99494.41;;;40.74;22.41
50292;BME280;36190;54.980;73.388;2023-08-06T13:36:48;99494.31;;;40.34;22.74
50292;BME280;36190;54.980;73.388;2023-08-06T13:39:17;99483.31;;;39.88;22.83
50292;BME280;36190;54.980;73.388;2023-08-06T13:41:45;99485.56;;;39.61;23.32
50292;BME280;36190;54.980;73.388;2023-08-06T13:44:13;99481.47;;;39.44;23.61
50292;BME280;36190;54.980;73.388;2023-08-06T13:46:41;99484.84;;;39.19;23.05
50292;BME280;36190;54.980;73.388;2023-08-06T13:49:09;99480.00;;;39.16;23.10
50292;BME280;36190;54.980;73.388;2023-08-06T13:51:37;99489.91;;;39.06;23.25
50292;BME280;36190;54.980;73.388;2023-08-06T13:54:04;99489.50;;;39.04;23.33
50292;BME280;36190;54.980;73.388;2023-08-06T13:56:34;99496.81;;;38.82;23.46
50292;BME280;36190;54.980;73.388;2023-08-06T13:59:03;99496.03;;;38.43;24.00
50292;BME280;36190;54.980;73.388;2023-08-06T14:01:31;99490.97;;;38.18;23.78
50292;BME280;36190;54.980;73.388;2023-08-06T14:03:59;99493.38;;;37.93;23.90
50292;BME280;36190;54.980;73.388;2023-08-06T14:06:26;99491.41;;;37.39;24.46
50292;BME280;36190;54.980;73.388;2023-08-06T14:08:54;99493.44;;;36.13;25.29
50292;BME280;36190;54.980;73.388;2023-08-06T14:11:21;99488.13;;;34.60;27.15
50292;BME280;36190;54.980;73.388;2023-08-06T14:13:50;99484.06;;;33.25;28.69
50292;BME280;36190;54.980;73.388;2023-08-06T14:16:18;99486.63;;;32.29;30.06
50292;BME280;36190;54.980;73.388;2023-08-06T14:18:45;99490.03;;;31.53;30.92
50292;BME280;36190;54.980;73.388;2023-08-06T14:21:13;99489.41;;;30.91;31.86
50292;BME280;36190;54.980;73.388;2023-08-06T14:23:41;99486.88;;;30.33;32.47
50292;BME280;36190;54.980;73.388;2023-08-06T14:26:08;99482.28;;;29.84;33.64
50292;BME280;36190;54.980;73.388;2023-08-06T14:28:37;99480.09;;;29.46;34.11
50292;BME280;36190;54.980;73.388;2023-08-06T14:31:06;99481.16;;;29.04;34.95
50292;BME280;36190;54.980;73.388;2023-08-06T14:33:33;99485.69;;;28.77;35.44
50292;BME280;36190;54.980;73.388;2023-08-06T14:36:01;99487.44;;;28.50;36.00
50292;BME280;36190;54.980;73.388;2023-08-06T14:38:28;99492.28;;;28.31;36.35
50292;BME280;36190;54.980;73.388;2023-08-06T14:40:56;99498.59;;;28.17;36.91
50292;BME280;36190;54.980;73.388;2023-08-06T14:43:24;99503.59;;;28.01;37.32
50292;BME280;36190;54.980;73.388;2023-08-06T14:45:51;99502.59;;;27.83;37.67
50292;BME280;36190;54.980;73.388;2023-08-06T14:48:20;99506.47;;;27.68;38.42
50292;BME280;36190;54.980;73.388;2023-08-06T14:50:48;99509.28;;;27.49;38.39
50292;BME280;36190;54.980;73.388;2023-08-06T14:53:15;99507.97;;;27.32;39.18
50292;BME280;36190;54.980;73.388;2023-08-06T14:55:43;99516.97;;;27.18;39.80
50292;BME280;36190;54.980;73.388;2023-08-06T14:58:10;99522.19;;;27.01;40.08
50292;BME280;36190;54.980;73.388;2023-08-06T15:00:38;99517.25;;;26.84;40.41
50292;BME280;36190;54.980;73.388;2023-08-06T15:03:05;99515.16;;;26.61;41.04
50292;BME280;36190;54.980;73.388;2023-08-06T15:05:34;99508.88;;;26.42;41.64
50292;BME280;36190;54.980;73.388;2023-08-06T15:08:02;99521.59;;;26.32;41.89
50292;BME280;36190;54.980;73.388;2023-08-06T15:10:29;99518.25;;;26.16;42.23
50292;BME280;36190;54.980;73.388;2023-08-06T15:12:57;99523.53;;;26.07;42.30
50292;BME280;36190;54.980;73.388;2023-08-06T15:15:26;99528.09;;;25.93;42.90
50292;BME280;36190;54.980;73.388;2023-08-06T15:17:54;99522.81;;;25.77;43.05
50292;BME280;36190;54.980;73.388;2023-08-06T15:20:22;99524.06;;;25.66;43.51
50292;BME280;36190;54.980;73.388;2023-08-06T15:22:51;99521.91;;;25.63;43.61
50292;BME280;36190;54.980;73.388;2023-08-06T15:25:19;99530.19;;;25.52;43.72
50292;BME280;36190;54.980;73.388;2023-08-06T15:27:46;99532.78;;;25.38;44.17
50292;BME280;36190;54.980;73.388;2023-08-06T15:30:14;99529.41;;;25.22;44.41
50292;BME280;36190;54.980;73.388;2023-08-06T15:32:41;99527.34;;;25.09;44.89
50292;BME280;36190;54.980;73.388;2023-08-06T15:35:10;99525.22;;;25.01;45.03
50292;BME280;36190;54.980;73.388;2023-08-06T15:37:37;99526.94;;;24.91;45.37
50292;BME280;36190;54.980;73.388;2023-08-06T15:40:07;99528.66;;;24.82;45.76
50292;BME280;36190;54.980;73.388;2023-08-06T15:42:35;99525.44;;;24.69;46.03
50292;BME280;36190;54.980;73.388;2023-08-06T15:45:03;99528.00;;;24.55;46.26
50292;BME280;36190;54.980;73.388;2023-08-06T15:47:30;99527.25;;;24.44;46.43
50292;BME280;36190;54.980;73.388;2023-08-06T15:49:58;99527.84;;;24.36;46.57
50292;BME280;36190;54.980;73.388;2023-08-06T15:52:25;99517.53;;;24.28;46.63
50292;BME280;36190;54.980;73.388;2023-08-06T15:54:53;99527.94;;;24.15;46.94
50292;BME280;36190;54.980;73.388;2023-08-06T15:57:22;99531.56;;;24.06;47.41
50292;BME280;36190;54.980;73.388;2023-08-06T15:59:49;99526.66;;;23.97;47.43
50292;BME280;36190;54.980;73.388;2023-08-06T16:02:16;99523.13;;;23.92;47.72
50292;BME280;36190;54.980;73.388;2023-08-06T16:04:44;99527.50;;;23.87;47.87
50292;BME280;36190;54.980;73.388;2023-08-06T16:07:12;99532.97;;;23.82;48.01
50292;BME280;36190;54.980;73.388;2023-08-06T16:09:39;99527.03;;;23.75;48.25
50292;BME280;36190;54.980;73.388;2023-08-06T16:12:07;99528.13;;;23.69;48.33
50292;BME280;36190;54.980;73.388;2023-08-06T16:14:36;99521.31;;;23.61;48.73
50292;BME280;36190;54.980;73.388;2023-08-06T16:17:04;99520.25;;;23.52;48.90
50292;BME280;36190;54.980;73.388;2023-08-06T16:19:32;99524.38;;;23.44;48.92
50292;BME280;36190;54.980;73.388;2023-08-06T16:21:59;99521.13;;;23.37;48.97
50292;BME280;36190;54.980;73.388;2023-08-06T16:24:27;99521.66;;;23.28;49.28
50292;BME280;36190;54.980;73.388;2023-08-06T16:26:54;99518.66;;;23.19;49.23
50292;BME280;36190;54.980;73.388;2023-08-06T16:29:22;99512.97;;;23.11;49.58
50292;BME280;36190;54.980;73.388;2023-08-06T16:31:51;99520.03;;;23.06;49.92
50292;BME280;36190;54.980;73.388;2023-08-06T16:34:18;99513.53;;;23.02;49.88
50292;BME280;36190;54.980;73.388;2023-08-06T16:36:46;99519.22;;;22.96;50.17
50292;BME280;36190;54.980;73.388;2023-08-06T16:39:13;99516.53;;;22.90;50.34
50292;BME280;36190;54.980;73.388;2023-08-06T16:41:45;99511.34;;;22.84;50.46
50292;BME280;36190;54.980;73.388;2023-08-06T16:44:13;99503.72;;;22.75;50.58
50292;BME280;36190;54.980;73.388;2023-08-06T16:46:40;99506.72;;;22.69;50.84
50292;BME280;36190;54.980;73.388;2023-08-06T16:49:09;99508.06;;;22.56;51.45
50292;BME280;36190;54.980;73.388;2023-08-06T16:51:36;99499.88;;;22.45;51.61
50292;BME280;36190;54.980;73.388;2023-08-06T16:54:04;99500.13;;;22.38;51.88
50292;BME280;36190;54.980;73.388;2023-08-06T16:56:31;99497.41;;;22.33;52.28
50292;BME280;36190;54.980;73.388;2023-08-06T16:59:00;99493.59;;;22.29;52.46
50292;BME280;36190;54.980;73.388;2023-08-06T17:01:27;99494.38;;;22.24;52.74
50292;BME280;36190;54.980;73.388;2023-08-06T17:03:55;99492.22;;;22.21;52.88
50292;BME280;36190;54.980;73.388;2023-08-06T17:06:24;99481.34;;;22.16;53.26
50292;BME280;36190;54.980;73.388;2023-08-06T17:08:51;99487.56;;;22.11;53.28
50292;BME280;36190;54.980;73.388;2023-08-06T17:11:19;99478.34;;;22.07;53.46
50292;BME280;36190;54.980;73.388;2023-08-06T17:13:47;99475.88;;;22.06;53.59
50292;BME280;36190;54.980;73.388;2023-08-06T17:16:16;99476.13;;;22.04;53.84
50292;BME280;36190;54.980;73.388;2023-08-06T17:18:43;99476.41;;;22.03;53.96
50292;BME280;36190;54.980;73.388;2023-08-06T17:21:11;99483.22;;;22.00;54.04
50292;BME280;36190;54.980;73.388;2023-08-06T17:23:40;99485.63;;;21.96;54.24
50292;BME280;36190;54.980;73.388;2023-08-06T17:26:07;99479.09;;;21.92;54.34
50292;BME280;36190;54.980;73.388;2023-08-06T17:28:35;99484.53;;;21.87;54.53
50292;BME280;36190;54.980;73.388;2023-08-06T17:31:02;99475.25;;;21.83;54.69
50292;BME280;36190;54.980;73.388;2023-08-06T17:33:32;99480.66;;;21.78;54.80
50292;BME280;36190;54.980;73.388;2023-08-06T17:36:00;99481.19;;;21.75;54.88
50292;BME280;36190;54.980;73.388;2023-08-06T17:38:27;99490.97;;;21.70;54.98
50292;BME280;36190;54.980;73.388;2023-08-06T17:40:56;99487.09;;;21.66;55.23
50292;BME280;36190;54.980;73.388;2023-08-06T17:43:25;99478.97;;;21.66;55.34
50292;BME280;36190;54.980;73.388;2023-08-06T17:45:53;99485.72;;;21.64;55.35
50292;BME280;36190;54.980;73.388;2023-08-06T17:48:20;99484.41;;;21.66;55.34
50292;BME280;36190;54.980;73.388;2023-08-06T17:50:48;99484.94;;;21.63;55.35
50292;BME280;36190;54.980;73.388;2023-08-06T17:53:16;99480.84;;;21.61;55.59
50292;BME280;36190;54.980;73.388;2023-08-06T17:55:43;99476.22;;;21.56;55.84
50292;BME280;36190;54.980;73.388;2023-08-06T17:58:12;99475.38;;;21.50;55.88
50292;BME280;36190;54.980;73.388;2023-08-06T18:00:40;99482.41;;;21.46;55.90
50292;BME280;36190;54.980;73.388;2023-08-06T18:03:10;99479.38;;;21.42;55.97
50292;BME280;36190;54.980;73.388;2023-08-06T18:05:37;99491.31;;;21.41;56.07
50292;BME280;36190;54.980;73.388;2023-08-06T18:08:05;99486.97;;;21.40;56.12
50292;BME280;36190;54.980;73.388;2023-08-06T18:10:32;99489.16;;;21.38;56.20
50292;BME280;36190;54.980;73.388;2023-08-06T18:13:00;99485.84;;;21.36;56.12
50292;BME280;36190;54.980;73.388;2023-08-06T18:15:29;99489.09;;;21.33;56.14
50292;BME280;36190;54.980;73.388;2023-08-06T18:17:57;99497.78;;;21.30;56.06
50292;BME280;36190;54.980;73.388;2023-08-06T18:20:24;99496.13;;;21.29;56.21
50292;BME280;36190;54.980;73.388;2023-08-06T18:22:51;99500.44;;;21.25;56.28
50292;BME280;36190;54.980;73.388;2023-08-06T18:25:19;99489.06;;;21.23;56.47
50292;BME280;36190;54.980;73.388;2023-08-06T18:27:47;99492.56;;;21.18;56.50
50292;BME280;36190;54.980;73.388;2023-08-06T18:30:14;99492.81;;;21.16;56.52
50292;BME280;36190;54.980;73.388;2023-08-06T18:32:44;99494.13;;;21.14;56.74
50292;BME280;36190;54.980;73.388;2023-08-06T18:35:12;99495.47;;;21.11;56.71
50292;BME280;36190;54.980;73.388;2023-08-06T18:37:39;99499.78;;;21.07;56.81
50292;BME280;36190;54.980;73.388;2023-08-06T18:40:08;99487.81;;;21.03;57.04
50292;BME280;36190;54.980;73.388;2023-08-06T18:42:35;99489.94;;;20.96;56.96
50292;BME280;36190;54.980;73.388;2023-08-06T18:45:05;99494.75;;;20.88;57.04
50292;BME280;36190;54.980;73.388;2023-08-06T18:47:33;99493.94;;;20.88;57.15
50292;BME280;36190;54.980;73.388;2023-08-06T18:50:02;99494.19;;;20.86;57.49
50292;BME280;36190;54.980;73.388;2023-08-06T18:52:30;99498.53;;;20.87;57.47
50292;BME280;36190;54.980;73.388;2023-08-06T18:54:58;99495.28;;;20.85;57.07
50292;BME280;36190;54.980;73.388;2023-08-06T18:57:25;99497.44;;;20.83;57.20
50292;BME280;36190;54.980;73.388;2023-08-06T18:59:55;99491.94;;;20.78;57.38
50292;BME280;36190;54.980;73.388;2023-08-06T19:02:22;99493.00;;;20.77;57.35
50292;BME280;36190;54.980;73.388;2023-08-06T19:04:50;99500.84;;;20.73;57.44
50292;BME280;36190;54.980;73.388;2023-08-06T19:07:19;99501.88;;;20.67;57.63
50292;BME280;36190;54.980;73.388;2023-08-06T19:09:46;99501.28;;;20.60;57.72
50292;BME280;36190;54.980;73.388;2023-08-06T19:12:14;99505.25;;;20.52;57.97
50292;BME280;36190;54.980;73.388;2023-08-06T19:14:41;99501.69;;;20.46;58.11
50292;BME280;36190;54.980;73.388;2023-08-06T19:17:09;99498.69;;;20.43;58.20
50292;BME280;36190;54.980;73.388;2023-08-06T19:19:36;99493.47;;;20.36;58.42
50292;BME280;36190;54.980;73.388;2023-08-06T19:22:09;99498.59;;;20.32;58.46
50292;BME280;36190;54.980;73.388;2023-08-06T19:24:38;99499.06;;;20.29;58.77
50292;BME280;36190;54.980;73.388;2023-08-06T19:27:06;99496.88;;;20.26;58.62
50292;BME280;36190;54.980;73.388;2023-08-06T19:29:33;99500.09;;;20.23;58.86
50292;BME280;36190;54.980;73.388;2023-08-06T19:32:01;99502.50;;;20.19;59.04
50292;BME280;36190;54.980;73.388;2023-08-06T19:34:29;99499.50;;;20.16;59.22
50292;BME280;36190;54.980;73.388;2023-08-06T19:36:57;99500.53;;;20.15;59.22
50292;BME280;36190;54.980;73.388;2023-08-06T19:39:24;99497.53;;;20.11;59.35
50292;BME280;36190;54.980;73.388;2023-08-06T19:41:53;99502.38;;;20.09;59.44
50292;BME280;36190;54.980;73.388;2023-08-06T19:44:20;99498.28;;;20.06;59.54
50292;BME280;36190;54.980;73.388;2023-08-06T19:46:48;99500.44;;;20.04;59.64
50292;BME280;36190;54.980;73.388;2023-08-06T19:49:15;99498.78;;;20.03;59.57
50292;BME280;36190;54.980;73.388;2023-08-06T19:51:43;99502.25;;;19.99;59.65
50292;BME280;36190;54.980;73.388;2023-08-06T19:54:11;99503.03;;;19.94;59.73
50292;BME280;36190;54.980;73.388;2023-08-06T19:56:38;99503.25;;;19.92;59.82
50292;BME280;36190;54.980;73.388;2023-08-06T19:59:07;99511.03;;;19.89;60.05
50292;BME280;36190;54.980;73.388;2023-08-06T20:01:35;99513.75;;;19.89;60.12
50292;BME280;36190;54.980;73.388;2023-08-06T20:04:02;99515.56;;;19.83;60.18
50292;BME280;36190;54.980;73.388;2023-08-06T20:06:29;99509.84;;;19.79;60.31
50292;BME280;36190;54.980;73.388;2023-08-06T20:08:57;99501.16;;;19.77;60.25
50292;BME280;36190;54.980;73.388;2023-08-06T20:11:26;99506.81;;;19.76;60.40
50292;BME280;36190;54.980;73.388;2023-08-06T20:13:53;99511.34;;;19.70;60.58
50292;BME280;36190;54.980;73.388;2023-08-06T20:16:22;99516.13;;;19.63;60.59
50292;BME280;36190;54.980;73.388;2023-08-06T20:18:50;99510.34;;;19.54;60.80
50292;BME280;36190;54.980;73.388;2023-08-06T20:21:17;99514.03;;;19.48;61.02
50292;BME280;36190;54.980;73.388;2023-08-06T20:23:45;99511.25;;;19.43;61.17
50292;BME280;36190;54.980;73.388;2023-08-06T20:26:12;99521.75;;;19.39;61.19
50292;BME280;36190;54.980;73.388;2023-08-06T20:28:41;99524.41;;;19.34;61.33
50292;BME280;36190;54.980;73.388;2023-08-06T20:31:08;99523.25;;;19.30;61.61
50292;BME280;36190;54.980;73.388;2023-08-06T20:33:37;99527.53;;;19.26;61.72
50292;BME280;36190;54.980;73.388;2023-08-06T20:36:05;99520.44;;;19.24;61.82
50292;BME280;36190;54.980;73.388;2023-08-06T20:38:32;99528.84;;;19.23;61.77
50292;BME280;36190;54.980;73.388;2023-08-06T20:41:00;99527.69;;;19.19;61.96
50292;BME280;36190;54.980;73.388;2023-08-06T20:43:27;99532.75;;;19.15;62.02
50292;BME280;36190;54.980;73.388;2023-08-06T20:45:55;99535.41;;;19.10;62.14
50292;BME280;36190;54.980;73.388;2023-08-06T20:48:23;99532.59;;;19.05;62.29
50292;BME280;36190;54.980;73.388;2023-08-06T20:50:53;99541.41;;;19.00;62.39
50292;BME280;36190;54.980;73.388;2023-08-06T20:53:20;99536.19;;;18.93;62.48
50292;BME280;36190;54.980;73.388;2023-08-06T20:55:57;99538.63;;;18.95;62.84
50292;BME280;36190;54.980;73.388;2023-08-06T20:58:25;99538.88;;;18.93;62.78
50292;BME280;36190;54.980;73.388;2023-08-06T21:00:53;99537.47;;;18.91;62.75
50292;BME280;36190;54.980;73.388;2023-08-06T21:03:21;99535.50;;;18.86;62.95
50292;BME280;36190;54.980;73.388;2023-08-06T21:05:59;99534.34;;;18.82;63.26
50292;BME280;36190;54.980;73.388;2023-08-06T21:08:26;99524.50;;;18.76;63.21
50292;BME280;36190;54.980;73.388;2023-08-06T21:10:54;99540.97;;;18.74;63.37
50292;BME280;36190;54.980;73.388;2023-08-06T21:13:21;99535.81;;;18.73;63.45
50292;BME280;36190;54.980;73.388;2023-08-06T21:15:54;99537.13;;;18.70;63.60
50292;BME280;36190;54.980;73.388;2023-08-06T21:18:22;99539.25;;;18.68;63.32
50292;BME280;36190;54.980;73.388;2023-08-06T21:20:53;99541.13;;;18.67;63.71
50292;BME280;36190;54.980;73.388;2023-08-06T21:23:22;99535.66;;;18.62;63.65
50292;BME280;36190;54.980;73.388;2023-08-06T21:25:55;99540.22;;;18.62;63.80
50292;BME280;36190;54.980;73.388;2023-08-06T21:28:24;99545.28;;;18.58;63.76
50292;BME280;36190;54.980;73.388;2023-08-06T21:30:55;99547.41;;;18.56;63.89
50292;BME280;36190;54.980;73.388;2023-08-06T21:33:24;99540.03;;;18.51;63.90
50292;BME280;36190;54.980;73.388;2023-08-06T21:35:52;99534.28;;;18.48;64.00
50292;BME280;36190;54.980;73.388;2023-08-06T21:38:19;99544.53;;;18.46;64.08
50292;BME280;36190;54.980;73.388;2023-08-06T21:40:48;99538.56;;;18.44;64.21
50292;BME280;36190;54.980;73.388;2023-08-06T21:43:16;99541.72;;;18.40;64.22
50292;BME280;36190;54.980;73.388;2023-08-06T21:45:43;99538.69;;;18.37;64.21
50292;BME280;36190;54.980;73.388;2023-08-06T21:48:10;99539.97;;;18.34;64.34
50292;BME280;36190;54.980;73.388;2023-08-06T21:50:38;99538.59;;;18.32;64.53
50292;BME280;36190;54.980;73.388;2023-08-06T21:53:05;99528.53;;;18.27;64.72
50292;BME280;36190;54.980;73.388;2023-08-06T21:55:33;99532.75;;;18.23;64.55
50292;BME280;36190;54.980;73.388;2023-08-06T21:58:02;99538.16;;;18.23;64.88
50292;BME280;36190;54.980;73.388;2023-08-06T22:00:29;99537.31;;;18.22;64.76
50292;BME280;36190;54.980;73.388;2023-08-06T22:02:57;99535.13;;;18.19;64.85
50292;BME280;36190;54.980;73.388;2023-08-06T22:05:24;99540.75;;;18.18;64.88
50292;BME280;36190;54.980;73.388;2023-08-06T22:07:52;99534.19;;;18.13;64.94
50292;BME280;36190;54.980;73.388;2023-08-06T22:10:19;99537.63;;;18.09;65.08
50292;BME280;36190;54.980;73.388;2023-08-06T22:12:47;99528.56;;;18.03;65.33
50292;BME280;36190;54.980;73.388;2023-08-06T22:15:16;99532.78;;;17.99;65.46
50292;BME280;36190;54.980;73.388;2023-08-06T22:17:43;99536.22;;;17.94;65.54
50292;BME280;36190;54.980;73.388;2023-08-06T22:20:11;99542.91;;;17.92;65.52
50292;BME280;36190;54.980;73.388;2023-08-06T22:22:38;99531.53;;;17.90;65.77
50292;BME280;36190;54.980;73.388;2023-08-06T22:25:07;99529.31;;;17.86;65.84
50292;BME280;36190;54.980;73.388;2023-08-06T22:27:34;99529.53;;;17.85;66.00
50292;BME280;36190;54.980;73.388;2023-08-06T22:30:02;99531.91;;;17.81;65.81
50292;BME280;36190;54.980;73.388;2023-08-06T22:32:31;99528.63;;;17.79;66.16
50292;BME280;36190;54.980;73.388;2023-08-06T22:34:59;99529.69;;;17.78;66.03
50292;BME280;36190;54.980;73.388;2023-08-06T22:37:26;99523.69;;;17.76;66.16
50292;BME280;36190;54.980;73.388;2023-08-06T22:39:54;99529.06;;;17.76;66.21
50292;BME280;36190;54.980;73.388;2023-08-06T22:42:24;99526.38;;;17.76;66.17